Time;durP1;ratioP1;P1;durP2;ratioP2;P2;SDS_P1;SDS_P2;PMS_P1;PMS_P2;Temp;Humidity;BMP_temperature;BMP_pressure;BME280_temperature;BME280_humidity;BME280_pressure;Samples;Min_cycle;Max_cycle;Signal;HPM_P1;HPM_P2
2021/04/14 00:02:22;;;;;;;3.80;3.60;;;;;;;3.66;35.95;102466.00;4994159;28;97957;-72
2021/04/14 00:04:50;;;;;;;7.93;4.30;;;;;;;3.66;36.30;102471.28;4990089;28;98182;-73
2021/04/14 00:07:17;;;;;;;3.90;3.50;;;;;;;3.63;35.67;102463.13;4988987;28;97812;-72
2021/04/14 00:09:44;;;;;;;6.05;3.75;;;;;;;3.57;35.81;102467.03;4975195;28;97127;-73
2021/04/14 00:12:30;;;;;;;4.10;3.80;;;;;;;3.53;35.59;102468.47;4991458;28;97307;-73
2021/04/14 00:14:56;;;;;;;5.35;4.13;;;;;;;3.52;35.69;102464.03;5005451;28;99620;-72
2021/04/14 00:17:23;;;;;;;4.30;4.00;;;;;;;3.51;36.53;102461.28;4989068;28;98076;-73
2021/04/14 00:19:51;;;;;;;5.93;4.22;;;;;;;3.46;36.08;102460.91;4992743;28;97058;-72
2021/04/14 00:22:18;;;;;;;4.15;3.70;;;;;;;3.42;36.38;102458.88;4986885;28;99884;-72
2021/04/14 00:28:53;;;;;;;5.78;3.88;;;;;;;3.31;36.17;102464.09;4992484;28;96925;-72
2021/04/14 00:31:38;;;;;;;5.22;4.32;;;;;;;3.27;36.67;102472.56;4996105;28;96750;-71
2021/04/14 00:34:07;;;;;;;4.78;4.38;;;;;;;3.23;36.40;102464.44;4975327;28;99460;-72
2021/04/14 00:36:36;;;;;;;4.55;4.15;;;;;;;3.16;36.71;102463.84;4995901;28;100489;-72
2021/04/14 00:39:06;;;;;;;4.43;3.97;;;;;;;3.13;36.47;102456.63;4993184;28;98021;-72
2021/04/14 00:41:34;;;;;;;5.18;4.70;;;;;;;3.16;36.06;102467.41;4993964;28;96835;-72
2021/04/14 00:44:02;;;;;;;6.82;5.32;;;;;;;3.15;36.93;102461.97;4992264;28;99960;-72
2021/04/14 00:46:29;;;;;;;9.50;4.38;;;;;;;3.10;36.74;102460.72;4995606;28;99003;-72
2021/04/14 00:48:56;;;;;;;7.57;4.45;;;;;;;3.09;36.74;102466.78;4993184;28;97467;-72
2021/04/14 00:51:25;;;;;;;5.22;4.72;;;;;;;3.07;36.73;102456.16;5003585;28;97165;-71
2021/04/14 00:53:54;;;;;;;5.82;4.10;;;;;;;3.06;36.61;102451.69;4995656;28;98029;-72
2021/04/14 00:56:21;;;;;;;5.93;3.83;;;;;;;3.09;36.19;102461.53;4996245;28;100297;-72
2021/04/14 00:58:47;;;;;;;7.00;4.15;;;;;;;3.06;36.72;102461.28;4994801;28;97181;-71
2021/04/14 01:01:14;;;;;;;4.85;4.50;;;;;;;3.08;36.42;102459.69;4998030;28;96842;-72
2021/04/14 01:03:41;;;;;;;7.72;4.45;;;;;;;3.08;36.08;102460.59;4995231;28;99205;-72
2021/04/14 01:06:10;;;;;;;6.13;4.70;;;;;;;3.07;37.01;102463.13;5009856;27;99351;-72
2021/04/14 01:08:37;;;;;;;5.13;4.57;;;;;;;3.07;36.58;102468.38;4996848;28;97890;-73
2021/04/14 01:11:06;;;;;;;6.70;4.28;;;;;;;3.06;36.67;102459.56;4996673;28;96933;-72
2021/04/14 01:13:33;;;;;;;6.72;4.50;;;;;;;3.05;36.73;102464.72;4991215;28;97342;-72
2021/04/14 01:16:00;;;;;;;7.07;4.80;;;;;;;3.03;36.53;102467.22;4975632;28;99005;-72
2021/04/14 01:18:30;;;;;;;5.57;3.92;;;;;;;3.04;36.26;102457.59;4991070;28;96685;-72
2021/04/14 01:20:57;;;;;;;6.32;4.07;;;;;;;3.04;36.48;102458.53;5023043;27;96817;-72
2021/04/14 01:23:27;;;;;;;4.97;4.50;;;;;;;3.08;36.44;102459.69;4990364;28;99907;-71
2021/04/14 01:25:55;;;;;;;4.88;4.57;;;;;;;3.08;36.80;102465.88;4991997;28;100238;-72
2021/04/14 01:28:24;;;;;;;5.03;4.57;;;;;;;3.06;36.60;102456.00;4975010;28;97763;-72
2021/04/14 01:30:53;;;;;;;5.93;4.25;;;;;;;3.04;36.95;102457.59;4995250;28;97168;-72
2021/04/14 01:33:21;;;;;;;9.80;4.75;;;;;;;2.98;37.00;102458.03;4987994;28;99404;-71
2021/04/14 01:35:48;;;;;;;11.35;4.70;;;;;;;2.96;37.20;102454.41;5003011;28;97609;-71
2021/04/14 01:38:15;;;;;;;4.95;4.03;;;;;;;2.92;37.26;102452.31;4991087;28;97161;-72
2021/04/14 01:40:43;;;;;;;5.68;4.45;;;;;;;2.92;37.24;102448.78;4974841;28;97546;-72
2021/04/14 01:43:10;;;;;;;5.90;4.38;;;;;;;2.91;37.16;102450.47;4990581;28;98771;-71
2021/04/14 01:45:39;;;;;;;10.35;4.80;;;;;;;2.91;37.62;102454.84;4991762;28;99102;-72
2021/04/14 01:48:07;;;;;;;4.97;4.53;;;;;;;2.88;36.57;102454.59;4991025;28;97010;-72
2021/04/14 01:50:35;;;;;;;7.28;4.75;;;;;;;2.85;37.57;102443.84;4989068;28;97322;-72
2021/04/14 01:53:02;;;;;;;6.13;4.70;;;;;;;2.83;37.16;102448.06;4989183;28;97654;-72
2021/04/14 01:55:29;;;;;;;6.35;4.70;;;;;;;2.81;37.39;102452.28;4989816;28;99262;-73
2021/04/14 01:57:58;;;;;;;9.85;5.28;;;;;;;2.85;38.12;102456.97;4987747;28;97848;-72
2021/04/14 02:00:30;;;;;;;9.88;4.82;;;;;;;2.86;37.98;102451.84;4990352;28;98146;-72
2021/04/14 02:02:57;;;;;;;6.90;5.28;;;;;;;2.84;37.60;102453.44;4971586;28;100455;-72
2021/04/14 02:05:27;;;;;;;6.50;4.88;;;;;;;2.80;37.62;102453.09;5023206;27;100564;-72
2021/04/14 02:07:54;;;;;;;5.53;4.15;;;;;;;2.79;37.40;102449.53;4992680;28;97479;-72
2021/04/14 02:10:21;;;;;;;5.40;4.35;;;;;;;2.78;37.90;102454.66;4992984;28;97332;-72
2021/04/14 02:12:48;;;;;;;6.40;4.28;;;;;;;2.71;37.54;102455.00;4990229;28;101364;-72
2021/04/14 02:15:22;;;;;;;8.77;4.78;;;;;;;2.72;37.66;102448.91;4991677;28;97642;-72
2021/04/14 02:17:49;;;;;;;4.70;4.20;;;;;;;2.68;37.76;102455.66;4991798;28;96681;-72
2021/04/14 02:20:16;;;;;;;7.63;4.82;;;;;;;2.63;37.92;102445.56;4990299;28;97815;-72
2021/04/14 02:22:43;;;;;;;5.32;4.43;;;;;;;2.61;37.93;102441.91;4993461;28;99392;-72
2021/04/14 02:25:12;;;;;;;5.35;4.50;;;;;;;2.64;37.67;102450.94;4991096;28;99259;-72
2021/04/14 02:27:39;;;;;;;6.13;4.55;;;;;;;2.61;37.47;102453.34;4990628;28;97198;-73
2021/04/14 02:30:08;;;;;;;8.73;5.40;;;;;;;2.64;38.76;102456.19;4990012;28;97708;-72
2021/04/14 02:32:35;;;;;;;12.40;5.77;;;;;;;2.64;39.38;102450.00;4990253;28;97709;-73
2021/04/14 02:35:03;;;;;;;10.93;5.97;;;;;;;2.67;40.09;102453.84;4990898;28;100254;-73
2021/04/14 02:37:30;;;;;;;9.98;4.85;;;;;;;2.72;39.38;102449.84;4992280;28;97422;-73
2021/04/14 02:39:57;;;;;;;6.90;4.63;;;;;;;2.68;39.31;102449.47;4992669;28;96804;-73
2021/04/14 02:42:24;;;;;;;5.88;4.70;;;;;;;2.65;39.03;102443.97;4989507;28;97031;-73
2021/04/14 02:44:50;;;;;;;5.25;4.45;;;;;;;2.61;39.01;102447.16;4988732;28;98716;-73
2021/04/14 02:47:17;;;;;;;6.22;4.38;;;;;;;2.57;39.17;102446.00;4988679;28;97029;-72
2021/04/14 02:49:45;;;;;;;4.85;4.47;;;;;;;2.46;38.86;102445.91;4988772;28;97809;-72
2021/04/14 02:52:12;;;;;;;5.80;4.50;;;;;;;2.39;38.69;102444.53;4988461;28;99033;-73
2021/04/14 02:54:38;;;;;;;5.95;4.38;;;;;;;2.37;39.12;102446.09;4985813;28;97978;-72
2021/04/14 02:57:06;;;;;;;7.95;4.70;;;;;;;2.34;38.69;102439.69;4988926;28;97630;-71
2021/04/14 02:59:33;;;;;;;5.47;4.32;;;;;;;2.30;38.52;102440.25;4987588;28;96890;-72
2021/04/14 03:01:59;;;;;;;10.43;5.68;;;;;;;2.29;39.46;102436.72;4986858;28;97847;-73
2021/04/14 03:04:27;;;;;;;5.50;5.00;;;;;;;2.27;39.57;102438.31;4987871;28;98933;-72
2021/04/14 03:06:55;;;;;;;5.78;4.47;;;;;;;2.26;38.99;102440.78;5023777;27;96940;-72
2021/04/14 03:09:21;;;;;;;5.95;5.35;;;;;;;2.23;39.19;102440.53;4989626;28;96991;-72
2021/04/14 03:11:48;;;;;;;6.50;4.75;;;;;;;2.22;39.35;102442.25;4989383;28;100853;-72
2021/04/14 03:14:15;;;;;;;9.15;5.25;;;;;;;2.15;39.31;102437.28;4990484;28;98943;-72
2021/04/14 03:16:42;;;;;;;5.10;4.72;;;;;;;2.12;39.15;102440.59;4989044;28;97992;-72
2021/04/14 03:19:10;;;;;;;5.80;5.38;;;;;;;2.10;38.79;102434.31;4987382;28;97083;-72
2021/04/14 03:21:37;;;;;;;6.10;5.10;;;;;;;2.09;38.75;102432.47;5019639;27;99657;-72
2021/04/14 03:24:05;;;;;;;6.85;4.88;;;;;;;2.06;39.17;102428.63;4987474;28;99795;-73
2021/04/14 03:26:33;;;;;;;7.53;5.20;;;;;;;2.03;39.21;102437.19;4988815;28;96764;-72
2021/04/14 03:29:00;;;;;;;12.77;6.53;;;;;;;2.04;39.91;102445.97;5019887;27;96855;-72
2021/04/14 03:31:27;;;;;;;6.35;5.75;;;;;;;2.05;39.86;102438.19;4970485;28;99313;-72
2021/04/14 03:33:55;;;;;;;7.97;5.30;;;;;;;2.05;39.14;102442.56;4986599;28;98306;-72
2021/04/14 03:36:22;;;;;;;8.45;5.38;;;;;;;2.01;39.27;102436.16;4987939;28;96916;-73
2021/04/14 03:38:48;;;;;;;6.90;4.95;;;;;;;1.95;39.47;102443.50;5010335;27;96974;-73
2021/04/14 03:41:16;;;;;;;10.75;6.07;;;;;;;1.96;40.14;102440.09;4986377;28;98081;-73
2021/04/14 03:43:43;;;;;;;5.05;4.70;;;;;;;1.91;40.28;102438.78;5019967;27;100253;-72
2021/04/14 03:46:10;;;;;;;6.35;5.45;;;;;;;1.90;40.04;102436.97;4988017;28;97860;-73
2021/04/14 03:48:37;;;;;;;8.00;5.90;;;;;;;1.90;39.83;102433.44;4987639;28;97839;-72
2021/04/14 03:51:04;;;;;;;10.38;6.00;;;;;;;1.96;40.60;102445.34;4968725;28;101284;-73
2021/04/14 03:53:34;;;;;;;9.23;6.53;;;;;;;2.00;40.34;102434.28;4991717;28;98826;-73
2021/04/14 03:56:05;;;;;;;5.70;5.20;;;;;;;2.01;39.88;102444.03;4992100;28;97781;-73
2021/04/14 03:58:34;;;;;;;10.18;6.68;;;;;;;2.02;40.71;102440.59;4995148;28;97037;-73
2021/04/14 04:01:06;;;;;;;7.55;5.78;;;;;;;1.94;41.12;102440.78;4993287;28;97718;-73
2021/04/14 04:03:34;;;;;;;6.25;4.70;;;;;;;1.93;40.25;102442.47;5011453;27;100700;-73
2021/04/14 04:06:02;;;;;;;8.75;6.25;;;;;;;1.93;40.72;102444.16;4987266;28;97415;-73
2021/04/14 04:08:29;;;;;;;7.97;4.90;;;;;;;1.92;40.09;102451.16;4986277;28;97283;-73
2021/04/14 04:10:56;;;;;;;9.63;5.78;;;;;;;1.86;39.87;102452.34;4987892;28;97892;-74
2021/04/14 04:13:28;;;;;;;7.53;5.25;;;;;;;1.86;40.23;102450.63;4991577;28;97712;-73
2021/04/14 04:15:56;;;;;;;6.70;5.65;;;;;;;1.88;40.16;102443.81;4993478;28;97783;-73
2021/04/14 04:18:23;;;;;;;5.85;5.28;;;;;;;1.88;39.54;102446.44;4999485;28;97776;-73
2021/04/14 04:20:51;;;;;;;10.27;5.65;;;;;;;1.92;39.54;102447.59;4993987;28;98984;-73
2021/04/14 04:23:17;;;;;;;5.80;5.30;;;;;;;1.86;40.25;102450.63;4995115;28;100631;-73
2021/04/14 04:25:44;;;;;;;8.48;6.30;;;;;;;1.78;39.87;102449.06;4996332;28;97574;-74
2021/04/14 04:28:11;;;;;;;6.22;5.30;;;;;;;1.80;39.26;102451.81;4993807;28;97857;-73
2021/04/14 04:30:38;;;;;;;6.72;6.10;;;;;;;1.76;39.92;102453.28;5022392;27;102334;-74
2021/04/14 04:33:07;;;;;;;7.00;6.40;;;;;;;1.72;39.50;102456.47;4988466;28;99143;-74
2021/04/14 04:35:35;;;;;;;6.95;5.53;;;;;;;1.69;39.80;102458.81;4992875;28;97482;-74
2021/04/14 04:38:02;;;;;;;8.02;6.35;;;;;;;1.70;40.07;102460.66;5026453;27;96960;-73
2021/04/14 04:40:29;;;;;;;7.28;5.93;;;;;;;1.72;39.30;102463.41;4991704;28;97630;-72
2021/04/14 04:42:57;;;;;;;10.85;7.38;;;;;;;1.74;40.88;102467.06;5005239;28;97500;-74
2021/04/14 04:45:26;;;;;;;12.48;6.82;;;;;;;1.81;40.34;102475.59;4991606;28;97069;-73
2021/04/14 04:47:54;;;;;;;6.40;5.75;;;;;;;1.78;40.53;102464.81;4992179;28;97033;-73
2021/04/14 04:50:27;;;;;;;9.98;6.25;;;;;;;1.77;40.13;102473.50;4991402;28;97597;-73
2021/04/14 04:52:54;;;;;;;11.65;7.38;;;;;;;1.78;40.81;102467.44;4989153;28;98811;-73
2021/04/14 04:55:22;;;;;;;15.20;7.78;;;;;;;1.88;41.26;102471.75;4995503;28;96916;-73
2021/04/14 04:58:03;;;;;;;13.88;7.80;;;;;;;2.03;41.50;102470.41;5020362;27;98867;-74
2021/04/14 05:00:30;;;;;;;12.77;7.70;;;;;;;2.08;40.86;102466.44;4990185;28;98966;-73
2021/04/14 05:02:57;;;;;;;15.02;8.25;;;;;;;2.17;41.65;102472.47;4990094;28;99192;-73
2021/04/14 05:05:28;;;;;;;15.40;7.27;;;;;;;2.27;41.69;102471.53;4988843;28;97667;-72
2021/04/14 05:07:55;;;;;;;13.05;6.63;;;;;;;2.28;41.17;102471.63;4990192;28;96992;-72
2021/04/14 05:10:22;;;;;;;7.00;5.60;;;;;;;2.28;40.67;102475.97;4991469;28;98656;-73
2021/04/14 05:12:51;;;;;;;7.32;6.25;;;;;;;2.27;40.29;102477.69;4990302;28;100476;-73
2021/04/14 05:15:22;;;;;;;5.93;5.40;;;;;;;2.24;40.53;102468.66;4989798;28;97129;-74
2021/04/14 05:18:08;;;;;;;8.82;5.80;;;;;;;2.26;40.13;102473.22;4985455;28;97324;-73
2021/04/14 05:20:35;;;;;;;8.32;6.15;;;;;;;2.23;40.15;102475.59;4991509;28;97636;-73
2021/04/14 05:23:03;;;;;;;12.02;8.35;;;;;;;2.28;40.09;102478.59;4991933;28;98516;-73
2021/04/14 05:25:32;;;;;;;11.85;6.93;;;;;;;2.29;40.45;102475.19;4989957;28;97956;-73
2021/04/14 05:28:03;;;;;;;13.98;8.05;;;;;;;2.34;40.73;102482.66;4988791;28;97506;-73
2021/04/14 05:30:31;;;;;;;13.20;8.15;;;;;;;2.41;40.99;102478.78;4989366;28;98018;-74
2021/04/14 05:32:57;;;;;;;13.73;8.00;;;;;;;2.41;40.81;102478.78;4988180;28;98039;-74
2021/04/14 05:35:44;;;;;;;8.48;6.90;;;;;;;2.41;40.96;102481.41;4990172;28;96883;-74
2021/04/14 05:38:12;;;;;;;9.38;6.57;;;;;;;2.43;40.30;102485.09;4992095;28;97449;-74
2021/04/14 05:40:40;;;;;;;9.38;6.78;;;;;;;2.44;40.36;102479.06;4991626;28;97170;-74
2021/04/14 05:43:16;;;;;;;8.35;6.82;;;;;;;2.46;40.15;102477.44;5002144;28;100037;-75
2021/04/14 05:45:45;;;;;;;8.23;6.70;;;;;;;2.53;40.08;102485.94;4973056;28;97559;-74
2021/04/14 05:48:13;;;;;;;13.02;7.60;;;;;;;2.55;40.25;102488.69;4989482;28;97079;-76
2021/04/14 05:50:40;;;;;;;11.85;7.70;;;;;;;2.63;40.16;102492.88;5007296;27;99189;-75
2021/04/14 05:53:08;;;;;;;15.30;8.45;;;;;;;2.69;40.88;102493.38;4985577;28;99529;-75
2021/04/14 05:55:35;;;;;;;15.87;9.60;;;;;;;2.80;40.98;102487.25;4987848;28;97944;-75
2021/04/14 05:58:02;;;;;;;9.52;6.43;;;;;;;2.86;40.75;102493.91;4988825;28;97245;-75
2021/04/14 06:00:29;;;;;;;13.23;7.60;;;;;;;2.89;40.65;102499.41;4971607;28;98760;-74
2021/04/14 06:02:55;;;;;;;16.33;8.32;;;;;;;2.92;40.87;102491.78;4987038;28;98755;-75
2021/04/14 06:05:24;;;;;;;6.78;6.18;;;;;;;2.97;40.61;102493.03;4985349;28;96933;-75
2021/04/14 06:07:51;;;;;;;13.87;7.47;;;;;;;2.99;41.17;102486.19;4989618;28;97732;-74
2021/04/14 06:10:23;;;;;;;11.57;7.67;;;;;;;2.99;41.52;102486.19;4991219;28;98038;-75
2021/04/14 06:12:52;;;;;;;19.90;7.40;;;;;;;3.06;40.92;102488.50;4989610;28;98008;-74
2021/04/14 06:15:21;;;;;;;12.45;6.78;;;;;;;3.08;41.22;102496.50;4989185;28;97841;-75
2021/04/14 06:17:47;;;;;;;23.48;11.40;;;;;;;3.09;41.02;102494.00;4988225;28;97664;-75
2021/04/14 06:20:17;;;;;;;11.10;6.68;;;;;;;3.10;40.66;102497.53;4989335;28;99134;-74
2021/04/14 06:22:44;;;;;;;10.55;5.90;;;;;;;3.05;40.83;102502.47;4973736;28;100517;-75
2021/04/14 06:25:15;;;;;;;9.55;5.70;;;;;;;3.10;40.21;102495.84;4979906;28;97715;-75
2021/04/14 06:27:50;;;;;;;11.90;6.35;;;;;;;3.13;40.67;102496.06;4996204;28;97262;-73
2021/04/14 06:30:18;;;;;;;9.82;6.60;;;;;;;3.21;39.90;102499.31;4990874;28;99960;-74
2021/04/14 06:32:45;;;;;;;12.97;8.20;;;;;;;3.29;41.00;102500.81;4974144;28;99479;-74
2021/04/14 06:35:13;;;;;;;11.15;7.47;;;;;;;3.36;40.00;102504.84;4997765;28;97857;-73
2021/04/14 06:37:39;;;;;;;12.15;6.75;;;;;;;3.47;39.81;102510.13;4995120;28;96815;-74
2021/04/14 06:40:30;;;;;;;11.70;7.80;;;;;;;3.50;40.22;102504.16;4995642;28;99255;-73
2021/04/14 06:43:04;;;;;;;9.50;5.78;;;;;;;3.57;39.73;102503.88;4994819;28;98632;-74
2021/04/14 06:45:34;;;;;;;12.77;6.10;;;;;;;3.52;39.98;102508.78;4997500;28;96829;-74
2021/04/14 06:48:16;;;;;;;6.65;6.00;;;;;;;3.57;40.10;102501.25;4976289;28;97049;-74
2021/04/14 06:50:46;;;;;;;6.70;5.95;;;;;;;3.57;39.88;102511.78;4990813;28;99469;-74
2021/04/14 06:53:28;;;;;;;11.43;6.90;;;;;;;3.61;40.42;102509.47;4993113;28;98850;-74
2021/04/14 06:55:58;;;;;;;8.98;5.70;;;;;;;3.66;40.06;102507.25;4988103;28;97068;-74
2021/04/14 06:58:33;;;;;;;9.45;6.28;;;;;;;3.71;39.79;102506.78;4984035;28;97379;-74
2021/04/14 07:01:02;;;;;;;8.70;6.53;;;;;;;3.74;39.39;102500.81;4988652;28;98556;-74
2021/04/14 07:03:33;;;;;;;8.88;6.30;;;;;;;3.81;39.24;102505.75;4992563;28;98775;-74
2021/04/14 07:06:08;;;;;;;9.05;5.78;;;;;;;3.84;39.36;102504.25;4974452;28;97873;-73
2021/04/14 07:09:08;;;;;;;9.18;5.88;;;;;;;3.89;39.50;102510.81;4989821;28;97365;-73
2021/04/14 07:11:35;;;;;;;12.82;7.90;;;;;;;3.95;39.40;102518.25;5023743;27;97795;-74
2021/04/14 07:14:04;;;;;;;11.27;7.18;;;;;;;4.00;39.06;102515.16;4991090;28;98555;-74
2021/04/14 07:16:46;;;;;;;12.65;6.03;;;;;;;4.03;39.83;102512.75;4994047;28;97203;-74
2021/04/14 07:19:20;;;;;;;11.15;6.10;;;;;;;4.01;39.39;102510.78;5012709;28;97049;-74
2021/04/14 07:21:50;;;;;;;11.25;6.10;;;;;;;3.98;39.24;102510.56;4989802;28;98111;-74
2021/04/14 07:24:22;;;;;;;10.95;6.78;;;;;;;3.86;39.99;102510.56;4994274;28;98402;-74
2021/04/14 07:26:53;;;;;;;9.70;6.68;;;;;;;3.94;39.35;102511.13;4993748;28;97611;-74
2021/04/14 07:29:27;;;;;;;11.50;5.93;;;;;;;4.04;39.42;102504.03;4997266;28;97104;-75
2021/04/14 07:31:58;;;;;;;12.75;6.60;;;;;;;4.10;39.14;102504.50;4994833;28;97684;-74
2021/04/14 07:34:34;;;;;;;9.77;6.32;;;;;;;4.17;38.88;102506.78;4990870;28;99218;-74
2021/04/14 07:37:03;;;;;;;9.98;7.00;;;;;;;4.27;38.81;102507.47;4997802;28;99118;-74
2021/04/14 07:39:33;;;;;;;9.57;6.70;;;;;;;4.32;38.71;102496.47;4990163;28;97603;-74
2021/04/14 07:42:09;;;;;;;13.35;7.05;;;;;;;4.40;39.06;102499.66;4987841;28;98125;-74
2021/04/14 07:44:43;;;;;;;14.18;5.90;;;;;;;4.47;38.71;102492.31;5001448;28;99431;-74
2021/04/14 07:47:12;;;;;;;10.50;6.45;;;;;;;4.57;38.15;102488.63;4975793;28;97384;-74
2021/04/14 07:49:39;;;;;;;7.53;5.88;;;;;;;4.66;38.44;102490.22;4994897;28;96790;-73
2021/04/14 07:52:06;;;;;;;8.63;5.85;;;;;;;4.75;38.17;102492.59;4993227;28;99488;-74
2021/04/14 07:54:39;;;;;;;6.00;5.15;;;;;;;4.81;38.25;102490.41;5009854;27;100452;-75
2021/04/14 07:57:07;;;;;;;8.52;5.72;;;;;;;4.85;37.98;102489.78;4991585;28;98381;-74
2021/04/14 07:59:35;;;;;;;11.80;5.38;;;;;;;4.85;38.10;102493.34;4996609;28;97158;-73
2021/04/14 08:02:05;;;;;;;8.13;5.05;;;;;;;4.90;38.55;102488.41;5023779;27;99438;-75
2021/04/14 08:04:35;;;;;;;10.40;5.07;;;;;;;4.96;38.14;102491.47;4994895;28;97559;-74
2021/04/14 08:07:12;;;;;;;11.45;4.95;;;;;;;5.09;38.01;102483.66;4995251;28;98873;-74
2021/04/14 08:09:55;;;;;;;12.13;5.30;;;;;;;5.20;38.01;102487.97;4991444;28;96773;-74
2021/04/14 08:12:28;;;;;;;5.93;5.43;;;;;;;5.20;37.71;102491.53;4990789;28;98569;-74
2021/04/14 08:15:10;;;;;;;9.15;4.85;;;;;;;5.32;37.67;102488.78;4989664;28;99239;-74
2021/04/14 08:17:38;;;;;;;10.85;4.35;;;;;;;5.41;37.33;102484.16;4989407;28;97381;-73
2021/04/14 08:20:08;;;;;;;10.60;4.50;;;;;;;5.39;37.41;102482.22;4993124;28;97225;-74
2021/04/14 08:22:35;;;;;;;78.40;29.95;;;;;;;5.38;37.45;102489.22;5005556;27;97922;-74
2021/04/14 08:25:05;;;;;;;12.60;6.10;;;;;;;5.40;37.19;102476.13;4991033;28;98542;-74
2021/04/14 08:27:38;;;;;;;5.22;4.32;;;;;;;5.46;37.31;102476.56;4992938;28;97558;-73
2021/04/14 08:30:11;;;;;;;4.82;4.07;;;;;;;5.53;36.84;102461.25;5007129;28;97448;-73
2021/04/14 08:32:41;;;;;;;4.93;3.95;;;;;;;5.63;36.82;102462.78;4993933;28;97956;-73
2021/04/14 08:35:29;;;;;;;5.35;4.22;;;;;;;5.68;36.95;102467.56;4991764;28;97627;-74
2021/04/14 08:38:05;;;;;;;7.22;4.80;;;;;;;5.77;36.47;102469.91;4986462;28;97310;-73
2021/04/14 08:40:34;;;;;;;5.32;4.30;;;;;;;5.72;36.30;102469.59;4977471;28;97157;-74
2021/04/14 08:43:10;;;;;;;6.28;4.10;;;;;;;5.76;35.91;102471.63;5012498;27;98892;-73
2021/04/14 08:45:42;;;;;;;6.75;3.83;;;;;;;5.78;36.22;102461.16;4987497;28;99566;-73
2021/04/14 08:48:14;;;;;;;4.32;3.88;;;;;;;5.81;36.32;102461.38;4977586;28;97356;-73
2021/04/14 08:50:44;;;;;;;8.82;3.95;;;;;;;5.82;36.00;102458.84;4986184;28;96940;-73
2021/04/14 08:53:15;;;;;;;6.55;4.53;;;;;;;5.90;35.96;102468.19;4993470;28;99789;-75
2021/04/14 08:55:43;;;;;;;4.72;4.30;;;;;;;5.93;36.21;102463.13;4992100;28;97615;-73
2021/04/14 08:58:10;;;;;;;4.07;3.78;;;;;;;5.97;35.94;102458.94;4990622;28;98011;-73
2021/04/14 09:00:37;;;;;;;5.72;3.72;;;;;;;5.95;35.67;102458.84;4995862;28;97953;-72
2021/04/14 09:03:06;;;;;;;9.65;5.88;;;;;;;5.98;35.79;102461.69;5021880;27;99351;-72
2021/04/14 09:05:35;;;;;;;4.03;3.72;;;;;;;5.97;35.37;102456.31;4995650;28;97725;-72
2021/04/14 09:08:03;;;;;;;5.68;3.80;;;;;;;6.07;35.53;102451.72;4995645;28;97327;-73
2021/04/14 09:10:40;;;;;;;8.77;3.95;;;;;;;6.15;34.68;102447.88;4992479;28;96987;-73
2021/04/14 09:13:09;;;;;;;4.85;3.55;;;;;;;6.30;34.98;102449.69;4992838;28;98155;-72
2021/04/14 09:15:47;;;;;;;5.30;3.55;;;;;;;6.42;34.36;102454.03;4988663;28;100851;-72
2021/04/14 09:18:26;;;;;;;5.15;3.65;;;;;;;6.46;34.58;102458.72;4993465;28;97686;-73
2021/04/14 09:21:07;;;;;;;3.50;3.20;;;;;;;6.43;34.11;102452.31;4992395;28;97183;-72
2021/04/14 09:23:36;;;;;;;3.55;3.30;;;;;;;6.44;34.21;102443.56;4990471;28;97972;-73
2021/04/14 09:26:15;;;;;;;5.22;4.55;;;;;;;6.52;34.54;102443.25;4989626;28;100986;-74
2021/04/14 09:28:45;;;;;;;8.07;5.13;;;;;;;6.60;34.31;102442.00;5022310;27;97545;-73
2021/04/14 09:31:14;;;;;;;5.63;3.65;;;;;;;6.72;34.31;102434.84;4987091;28;97634;-73
2021/04/14 09:33:43;;;;;;;6.82;3.97;;;;;;;6.73;34.07;102438.38;4991264;28;97753;-73
2021/04/14 09:36:12;;;;;;;4.30;3.20;;;;;;;6.79;34.03;102429.13;4993992;28;97658;-72
2021/04/14 09:38:46;;;;;;;3.33;3.22;;;;;;;6.84;33.91;102432.97;5011317;27;97216;-73
2021/04/14 09:41:28;;;;;;;4.60;3.05;;;;;;;6.80;33.73;102441.53;4992073;28;97071;-73
2021/04/14 09:43:56;;;;;;;5.03;2.63;;;;;;;6.84;33.43;102432.97;4984515;28;97681;-73
2021/04/14 09:46:28;;;;;;;3.13;2.92;;;;;;;6.86;33.48;102433.97;4998345;28;98181;-73
2021/04/14 09:48:55;;;;;;;3.47;3.00;;;;;;;6.92;33.63;102433.44;4994007;28;97666;-73
2021/04/14 09:51:33;;;;;;;5.22;2.75;;;;;;;6.90;32.35;102432.44;4997820;28;97393;-73
2021/04/14 09:54:07;;;;;;;4.15;3.42;;;;;;;6.89;33.02;102435.91;4993699;28;98785;-73
2021/04/14 09:56:34;;;;;;;3.65;3.25;;;;;;;6.83;33.46;102431.16;4991723;28;99027;-73
2021/04/14 09:59:07;;;;;;;5.93;5.38;;;;;;;6.73;32.43;102433.09;4993313;28;97372;-73
2021/04/14 10:01:37;;;;;;;4.43;3.40;;;;;;;6.65;33.57;102434.38;4994737;28;98018;-73
2021/04/14 10:04:06;;;;;;;8.77;4.32;;;;;;;6.64;33.50;102424.59;4991299;28;100262;-73
2021/04/14 10:06:35;;;;;;;3.50;3.20;;;;;;;6.62;33.48;102423.56;4975045;28;98893;-73
2021/04/14 10:09:04;;;;;;;5.35;3.22;;;;;;;6.65;33.29;102426.44;4993410;28;98187;-73
2021/04/14 10:11:34;;;;;;;3.78;3.17;;;;;;;6.57;33.84;102425.94;4990504;28;97760;-73
2021/04/14 10:14:09;;;;;;;3.50;2.88;;;;;;;6.57;33.00;102425.03;4990835;28;98304;-73
2021/04/14 10:16:36;;;;;;;4.05;3.67;;;;;;;6.55;33.92;102413.44;5010101;27;101281;-73
2021/04/14 10:19:05;;;;;;;4.40;3.95;;;;;;;6.51;33.99;102421.97;4991891;28;98380;-73
2021/04/14 10:21:36;;;;;;;4.75;3.53;;;;;;;6.49;33.85;102419.25;4998767;28;97516;-73
2021/04/14 10:24:07;;;;;;;5.80;3.85;;;;;;;6.54;33.65;102428.41;4993964;27;99684;-73
2021/04/14 10:26:37;;;;;;;5.75;3.38;;;;;;;6.50;33.72;102425.44;4995596;28;98127;-73
2021/04/14 10:29:08;;;;;;;4.47;4.03;;;;;;;6.54;33.81;102423.13;4995731;28;97334;-72
2021/04/14 10:31:36;;;;;;;4.00;3.60;;;;;;;6.61;33.66;102427.03;4998958;28;97742;-72
2021/04/14 10:34:07;;;;;;;4.60;3.72;;;;;;;6.69;33.43;102417.88;4996457;28;100435;-72
2021/04/14 10:36:38;;;;;;;7.30;3.70;;;;;;;6.70;33.14;102423.25;5003462;28;97924;-73
2021/04/14 10:39:10;;;;;;;4.93;3.85;;;;;;;6.82;33.30;102412.50;5017347;27;96925;-73
2021/04/14 10:41:38;;;;;;;4.05;3.63;;;;;;;6.88;33.21;102411.16;5025213;27;96642;-72
2021/04/14 10:44:14;;;;;;;3.88;3.50;;;;;;;6.92;33.03;102407.91;5003342;28;98273;-72
2021/04/14 10:46:41;;;;;;;4.32;3.20;;;;;;;6.98;33.00;102404.72;4992488;28;97929;-73
2021/04/14 10:49:14;;;;;;;5.70;3.47;;;;;;;7.02;33.09;102406.69;5008229;27;97365;-72
2021/04/14 10:51:46;;;;;;;4.47;3.67;;;;;;;7.11;33.13;102402.91;4997230;28;96875;-72
2021/04/14 10:54:15;;;;;;;3.80;3.35;;;;;;;7.20;32.91;102398.16;4993050;28;99073;-72
2021/04/14 10:56:42;;;;;;;5.18;3.92;;;;;;;7.28;32.87;102395.97;4998057;28;101285;-72
2021/04/14 10:59:11;;;;;;;6.60;3.22;;;;;;;7.32;32.81;102391.78;4990929;28;98737;-72
2021/04/14 11:01:40;;;;;;;3.83;3.08;;;;;;;7.37;33.10;102385.00;4993685;28;96835;-72
2021/04/14 11:04:27;;;;;;;5.63;3.47;;;;;;;7.45;32.17;102390.00;4993999;27;99070;-73
2021/04/14 11:06:59;;;;;;;6.10;2.95;;;;;;;7.44;32.36;102393.44;4996096;28;99043;-72
2021/04/14 11:09:28;;;;;;;3.33;3.13;;;;;;;7.46;32.30;102390.88;5024142;27;97975;-72
2021/04/14 11:11:55;;;;;;;3.63;2.65;;;;;;;7.38;32.30;102395.72;4974999;28;97563;-72
2021/04/14 11:14:22;;;;;;;2.92;2.72;;;;;;;7.44;32.43;102389.91;5001987;28;99360;-73
2021/04/14 11:16:50;;;;;;;6.85;4.85;;;;;;;7.53;32.27;102377.19;4998336;28;98164;-72
2021/04/14 11:19:18;;;;;;;19.05;10.35;;;;;;;7.64;32.16;102376.97;4993582;28;97086;-73
2021/04/14 11:21:45;;;;;;;4.75;3.72;;;;;;;7.69;32.28;102378.16;4996239;28;96865;-73
2021/04/14 11:24:16;;;;;;;4.90;3.45;;;;;;;7.78;32.17;102381.34;4996465;28;98778;-72
2021/04/14 11:26:49;;;;;;;15.82;9.23;;;;;;;7.81;31.89;102381.53;5004931;28;101344;-71
2021/04/14 11:29:21;;;;;;;3.67;3.35;;;;;;;7.80;31.67;102379.69;5001722;28;97938;-71
2021/04/14 11:31:49;;;;;;;4.68;3.15;;;;;;;7.79;32.02;102377.88;4999249;28;96717;-72
2021/04/14 11:34:18;;;;;;;4.78;2.90;;;;;;;7.81;32.23;102375.31;4998676;28;100963;-72
2021/04/14 11:37:02;;;;;;;3.25;3.00;;;;;;;7.84;31.15;102381.69;5001005;28;97553;-72
2021/04/14 11:39:35;;;;;;;5.97;3.15;;;;;;;7.83;31.67;102381.63;4992930;28;98117;-72
2021/04/14 11:42:04;;;;;;;4.10;2.72;;;;;;;7.75;31.26;102373.22;4999668;28;97267;-73
2021/04/14 11:44:41;;;;;;;3.08;2.88;;;;;;;7.68;31.39;102373.69;4994674;28;99371;-74
2021/04/14 11:47:21;;;;;;;4.85;3.20;;;;;;;7.65;31.72;102376.19;4994670;28;98589;-72
2021/04/14 11:49:48;;;;;;;3.33;3.10;;;;;;;7.64;31.84;102369.03;4994222;28;97760;-72